Nearby METAR Reports

 

YSCB - Canberra (civ/Mi, Australia
Distance from station: NNW 6km
Updated: Mon, 21-Jan-2019 2:00am AEDT
Partly cloudy
Partly cloudy
 Wind from SE
Wind: SE 7 km/h
Temperature: 17°C
Dew Point: 14°C
Humidity: 83%
Barometer: 1022 hPa
Clouds: Partly cloudy
Visibility: 10 km
Cloud details: Partly cloudy 1554 m
2019/01/20 15:00 YSCB 201500Z AUTO 13004KT 9999 // SCT051 17/14 Q1022
YCOM - Cooma Snowy Mtns, Australia
Distance from station: S 110km
Updated: Mon, 21-Jan-2019 1:00am AEDT
Clear
Clear
 Wind from NNE
Wind: NNE 9 km/h
Temperature: 14°C
Dew Point: 13°C
Humidity: 94%
Barometer: 1023 hPa
Clouds: Clear
Visibility: 10 km
2019/01/20 14:00 YCOM 201400Z AUTO 03005KT 9999 // NCD 14/13 Q1023
 
YSNW - Nowra (aus-Navy), Australia
Distance from station: ENE 127km
Updated: Mon, 21-Jan-2019 2:00am AEDT
Overcast
Overcast
 Wind from calm
Wind: Calm
Temperature: 21°C
Dew Point: 21°C
Humidity: 100%
Barometer: 1019 hPa
Clouds: Overcast
Visibility: 10 km
Cloud details: Overcast 518 m
2019/01/20 15:00 YSNW 201500Z AUTO 00000KT 9999 // OVC017 21/21 Q1019
YSWG - Wagga Wagga(Cv/M, Australia
Distance from station: W 159km
Updated: Mon, 21-Jan-2019 2:00am AEDT
Clear
Clear
 Wind from ENE
Wind: ENE 31 km/h
Temperature: 26°C
Dew Point: 17°C
Humidity: 58%
Barometer: 1015 hPa
Clouds: Clear
Visibility: 10 km
2019/01/20 15:00 YSWG 201500Z AUTO 07017KT 9999 // NCD 26/17 Q1015
 
YMER - Merimbula Arpt, Australia
Distance from station: SSE 187km
Updated: Mon, 21-Jan-2019 2:00am AEDT
Mostly cloudy
Mostly cloudy
 Wind from calm
Wind: Calm
Temperature: 18°C
Dew Point: 17°C
Humidity: 94%
Barometer: 1020 hPa
Clouds: Mostly cloudy
Visibility: 10 km
Cloud details: Mostly cloudy 884 m
2019/01/20 15:00 YMER 201500Z AUTO 00000KT 9999 // BKN029 18/17 Q1020
YMAY - Albury Airport, Australia
Distance from station: WSW 220km
Updated: Mon, 21-Jan-2019 2:00am AEDT
Clear
Clear
 Wind from SE
Wind: SE 19 km/h
Temperature: 27°C
Dew Point: 11°C
Humidity: 37%
Barometer: 1015 hPa
Clouds: Clear
Visibility: 10 km
2019/01/20 15:00 YMAY 201500Z AUTO 13010KT 9999 // NCD 27/11 Q1015
 
YSSY - Sydney Intl Airp, Australia
Distance from station: NE 236km
Updated: Mon, 21-Jan-2019 2:00am AEDT
Light drizzle, Overcast
Light drizzle, Overcast
 Wind from NNE
Wind: NNE 7 km/h
Temperature: 24°C
Dew Point: 20°C
Humidity: 78%
Barometer: 1019 hPa
Summary: Light Drizzle
Clouds: Overcast
Visibility: 10 km
Cloud details: Partly cloudy 701 m
Partly cloudy 823 m
Overcast 1067 m
2019/01/20 15:00 YSSY 201500Z 03004KT 9999 -DZ SCT023 SCT027 OVC035 24/20 Q1019
YSRI - Richmond (aus-Af, Australia
Distance from station: NE 240km
Updated: Mon, 21-Jan-2019 2:00am AEDT
Mostly cloudy
Mostly cloudy
 Wind from WSW
Wind: WSW 13 km/h
Temperature: 22°C
Dew Point: 21°C
Humidity: 94%
Barometer: 1020 hPa
Clouds: Mostly cloudy
Cloud details: Partly cloudy 183 m
Mostly cloudy 305 m
Mostly cloudy 457 m
2019/01/20 15:00 YSRI 201500Z AUTO 25007KT //// // SCT006 BKN010 BKN015 22/21 Q1020
 
YNAR - Narrandera, Australia
Distance from station: WNW 254km
Updated: Mon, 21-Jan-2019 1:00am AEDT

 Wind from calm
Wind: Calm
Temperature: 20°C
Dew Point: 7°C
Humidity: 43%
Barometer: 1014 hPa
2019/01/20 14:00 YNAR 201400Z AUTO 00000KT //// // ////// 20/07 Q1014
YWGT - Wangaratta Arp, Australia
Distance from station: WSW 288km
Updated: Mon, 21-Jan-2019 2:00am AEDT
Clear
Clear
 Wind from SSE
Wind: SSE 11 km/h
Temperature: 24°C
Dew Point: 11°C
Humidity: 44%
Barometer: 1014 hPa
Clouds: Clear
Visibility: 10 km
2019/01/20 15:00 YWGT 201500Z AUTO 16006KT 9999 // NCD 24/11 Q1014